sensor_id;sensor_type;location;lat;lon;timestamp;pressure;altitude;pressure_sealevel;temperature;humidity
60089;BME280;45961;53.574;55.878;2023-02-13T00:00:58;100716.72;;;-10.22;71.03
60089;BME280;45961;53.574;55.878;2023-02-13T00:01:59;100687.78;;;-10.28;71.31
60089;BME280;45961;53.574;55.878;2023-02-13T00:03:00;100687.63;;;-10.12;71.22
60089;BME280;45961;53.574;55.878;2023-02-13T00:04:01;100683.66;;;-10.28;71.25
60089;BME280;45961;53.574;55.878;2023-02-13T00:05:02;100681.56;;;-10.32;71.34
60089;BME280;45961;53.574;55.878;2023-02-13T00:06:03;100680.38;;;-10.35;71.36
60089;BME280;45961;53.574;55.878;2023-02-13T00:07:04;100676.88;;;-10.29;71.36
60089;BME280;45961;53.574;55.878;2023-02-13T00:08:05;100674.50;;;-10.27;71.52
60089;BME280;45961;53.574;55.878;2023-02-13T00:09:06;100676.69;;;-10.39;71.41
60089;BME280;45961;53.574;55.878;2023-02-13T00:10:10;100666.81;;;-10.37;71.33
60089;BME280;45961;53.574;55.878;2023-02-13T00:11:11;100682.56;;;-10.38;71.41
60089;BME280;45961;53.574;55.878;2023-02-13T00:12:15;100676.69;;;-10.39;71.42
60089;BME280;45961;53.574;55.878;2023-02-13T00:13:16;100685.50;;;-10.42;71.43
60089;BME280;45961;53.574;55.878;2023-02-13T00:14:17;100688.47;;;-10.38;71.32
60089;BME280;45961;53.574;55.878;2023-02-13T00:15:18;100692.16;;;-10.26;71.36
60089;BME280;45961;53.574;55.878;2023-02-13T00:16:19;100686.88;;;-10.20;71.22
60089;BME280;45961;53.574;55.878;2023-02-13T00:17:20;100684.63;;;-10.17;71.08
60089;BME280;45961;53.574;55.878;2023-02-13T00:18:21;100688.50;;;-10.12;70.87
60089;BME280;45961;53.574;55.878;2023-02-13T00:19:21;100682.28;;;-10.24;70.66
60089;BME280;45961;53.574;55.878;2023-02-13T00:20:22;100686.41;;;-10.33;70.68
60089;BME280;45961;53.574;55.878;2023-02-13T00:21:23;100680.97;;;-10.29;70.83
60089;BME280;45961;53.574;55.878;2023-02-13T00:22:24;100677.75;;;-10.37;70.89
60089;BME280;45961;53.574;55.878;2023-02-13T00:23:26;100682.56;;;-10.21;71.04
60089;BME280;45961;53.574;55.878;2023-02-13T00:24:28;100686.84;;;-10.37;71.06
60089;BME280;45961;53.574;55.878;2023-02-13T00:25:29;100687.31;;;-10.33;71.13
60089;BME280;45961;53.574;55.878;2023-02-13T00:26:30;100685.81;;;-10.39;71.30
60089;BME280;45961;53.574;55.878;2023-02-13T00:27:31;100683.91;;;-10.33;71.39
60089;BME280;45961;53.574;55.878;2023-02-13T00:28:33;100676.81;;;-10.46;71.55
60089;BME280;45961;53.574;55.878;2023-02-13T00:29:37;100682.59;;;-10.30;71.71
60089;BME280;45961;53.574;55.878;2023-02-13T00:30:38;100684.06;;;-10.23;71.64
60089;BME280;45961;53.574;55.878;2023-02-13T00:31:39;100683.78;;;-10.26;71.68
60089;BME280;45961;53.574;55.878;2023-02-13T00:32:41;100680.97;;;-10.29;71.63
60089;BME280;45961;53.574;55.878;2023-02-13T00:33:42;100684.38;;;-10.29;71.70
60089;BME280;45961;53.574;55.878;2023-02-13T00:34:43;100688.47;;;-10.29;71.74
60089;BME280;45961;53.574;55.878;2023-02-13T00:35:43;100678.78;;;-10.26;71.98
60089;BME280;45961;53.574;55.878;2023-02-13T00:36:44;100678.19;;;-10.32;71.90
60089;BME280;45961;53.574;55.878;2023-02-13T00:37:45;100682.03;;;-10.27;72.01
60089;BME280;45961;53.574;55.878;2023-02-13T00:38:47;100685.41;;;-10.27;71.98
60089;BME280;45961;53.574;55.878;2023-02-13T00:39:48;100687.59;;;-10.30;72.06
60089;BME280;45961;53.574;55.878;2023-02-13T00:40:51;100677.13;;;-10.43;72.20
60089;BME280;45961;53.574;55.878;2023-02-13T00:41:52;100673.31;;;-10.39;72.47
60089;BME280;45961;53.574;55.878;2023-02-13T00:42:55;100681.84;;;-10.37;72.52
60089;BME280;45961;53.574;55.878;2023-02-13T00:43:56;100682.44;;;-10.40;72.78
60089;BME280;45961;53.574;55.878;2023-02-13T00:44:57;100683.47;;;-10.38;72.83
60089;BME280;45961;53.574;55.878;2023-02-13T00:45:58;100693.91;;;-10.33;72.84
60089;BME280;45961;53.574;55.878;2023-02-13T00:46:59;100686.84;;;-10.37;73.03
60089;BME280;45961;53.574;55.878;2023-02-13T00:48:00;100691.13;;;-10.36;73.13
60089;BME280;45961;53.574;55.878;2023-02-13T00:49:01;100689.41;;;-10.29;73.08
60089;BME280;45961;53.574;55.878;2023-02-13T00:50:03;100693.91;;;-10.33;73.07
60089;BME280;45961;53.574;55.878;2023-02-13T00:51:04;100691.91;;;-10.29;73.04
60089;BME280;45961;53.574;55.878;2023-02-13T00:52:06;100692.31;;;-10.24;73.00
60089;BME280;45961;53.574;55.878;2023-02-13T00:53:07;100676.38;;;-10.42;73.13
60089;BME280;45961;53.574;55.878;2023-02-13T00:54:07;100695.81;;;-10.22;73.26
60089;BME280;45961;53.574;55.878;2023-02-13T00:55:09;100691.16;;;-10.28;73.22
60089;BME280;45961;53.574;55.878;2023-02-13T00:56:10;100693.78;;;-10.18;73.08
60089;BME280;45961;53.574;55.878;2023-02-13T00:57:11;100695.56;;;-10.25;73.13
60089;BME280;45961;53.574;55.878;2023-02-13T00:58:13;100674.94;;;-10.23;73.01
60089;BME280;45961;53.574;55.878;2023-02-13T00:59:14;100680.84;;;-10.31;72.70
60089;BME280;45961;53.574;55.878;2023-02-13T01:00:16;100686.25;;;-10.43;73.08
60089;BME280;45961;53.574;55.878;2023-02-13T01:01:17;100681.84;;;-10.37;73.19
60089;BME280;45961;53.574;55.878;2023-02-13T01:02:18;100679.06;;;-10.40;73.15
60089;BME280;45961;53.574;55.878;2023-02-13T01:03:20;100683.47;;;-10.29;73.12
60089;BME280;45961;53.574;55.878;2023-02-13T01:04:21;100673.97;;;-10.58;73.10
60089;BME280;45961;53.574;55.878;2023-02-13T01:05:22;100685.38;;;-10.44;73.10
60089;BME280;45961;53.574;55.878;2023-02-13T01:06:24;100673.19;;;-10.41;73.22
60089;BME280;45961;53.574;55.878;2023-02-13T01:07:25;100677.56;;;-10.47;73.16
60089;BME280;45961;53.574;55.878;2023-02-13T01:08:26;100673.75;;;-10.35;73.18
60089;BME280;45961;53.574;55.878;2023-02-13T01:09:28;100671.13;;;-10.28;73.06
60089;BME280;45961;53.574;55.878;2023-02-13T01:10:29;100667.88;;;-10.44;73.20
60089;BME280;45961;53.574;55.878;2023-02-13T01:11:30;100678.44;;;-10.47;73.43
60089;BME280;45961;53.574;55.878;2023-02-13T01:12:34;100666.66;;;-10.48;73.35
60089;BME280;45961;53.574;55.878;2023-02-13T01:13:35;100663.16;;;-10.41;73.49
60089;BME280;45961;53.574;55.878;2023-02-13T01:14:36;100660.06;;;-10.38;73.55
60089;BME280;45961;53.574;55.878;2023-02-13T01:15:38;100666.25;;;-10.35;73.57
60089;BME280;45961;53.574;55.878;2023-02-13T01:16:39;100663.41;;;-10.55;73.50
60089;BME280;45961;53.574;55.878;2023-02-13T01:17:40;100668.63;;;-10.36;73.69
60089;BME280;45961;53.574;55.878;2023-02-13T01:18:41;100682.03;;;-10.27;73.53
60089;BME280;45961;53.574;55.878;2023-02-13T01:19:42;100677.00;;;-10.27;73.62
60089;BME280;45961;53.574;55.878;2023-02-13T01:20:44;100674.22;;;-10.30;73.51
60089;BME280;45961;53.574;55.878;2023-02-13T01:21:46;100668.03;;;-10.25;73.56
60089;BME280;45961;53.574;55.878;2023-02-13T01:22:47;100666.84;;;-10.20;73.48
60089;BME280;45961;53.574;55.878;2023-02-13T01:23:49;100667.00;;;-10.27;73.27
60089;BME280;45961;53.574;55.878;2023-02-13T01:24:54;100670.38;;;-10.35;73.80
60089;BME280;45961;53.574;55.878;2023-02-13T01:25:55;100667.31;;;-10.33;73.62
60089;BME280;45961;53.574;55.878;2023-02-13T01:26:56;100674.22;;;-10.30;73.67
60089;BME280;45961;53.574;55.878;2023-02-13T01:27:57;100668.59;;;-10.19;73.72
60089;BME280;45961;53.574;55.878;2023-02-13T01:28:58;100670.53;;;-10.16;73.68
60089;BME280;45961;53.574;55.878;2023-02-13T01:29:59;100677.00;;;-10.36;73.55
60089;BME280;45961;53.574;55.878;2023-02-13T01:31:00;100670.81;;;-10.39;73.70
60089;BME280;45961;53.574;55.878;2023-02-13T01:32:01;100668.31;;;-10.39;73.70
60089;BME280;45961;53.574;55.878;2023-02-13T01:33:04;100667.13;;;-10.43;73.95
60089;BME280;45961;53.574;55.878;2023-02-13T01:34:07;100669.91;;;-10.49;73.80
60089;BME280;45961;53.574;55.878;2023-02-13T01:35:09;100662.09;;;-10.52;73.90
60089;BME280;45961;53.574;55.878;2023-02-13T01:36:11;100659.03;;;-10.40;74.00
60089;BME280;45961;53.574;55.878;2023-02-13T01:37:13;100670.19;;;-10.46;74.13
60089;BME280;45961;53.574;55.878;2023-02-13T01:38:15;100656.63;;;-10.65;74.35
60089;BME280;45961;53.574;55.878;2023-02-13T01:39:15;100661.63;;;-10.65;74.60
60089;BME280;45961;53.574;55.878;2023-02-13T01:40:18;100662.84;;;-10.53;74.59
60089;BME280;45961;53.574;55.878;2023-02-13T01:41:19;100662.50;;;-10.64;74.71
60089;BME280;45961;53.574;55.878;2023-02-13T01:42:28;100651.31;;;-10.68;74.93
60089;BME280;45961;53.574;55.878;2023-02-13T01:43:45;100661.88;;;-10.71;74.96
60089;BME280;45961;53.574;55.878;2023-02-13T01:44:59;100669.59;;;-10.60;75.22
60089;BME280;45961;53.574;55.878;2023-02-13T01:46:01;100665.78;;;-10.57;75.14
60089;BME280;45961;53.574;55.878;2023-02-13T01:47:07;100673.50;;;-10.71;75.38
60089;BME280;45961;53.574;55.878;2023-02-13T01:48:53;100664.84;;;-10.66;75.83
60089;BME280;45961;53.574;55.878;2023-02-13T01:50:12;100662.78;;;-10.61;75.75
60089;BME280;45961;53.574;55.878;2023-02-13T01:51:39;100666.81;;;-10.46;75.78
60089;BME280;45961;53.574;55.878;2023-02-13T01:52:59;100667.84;;;-10.53;75.66
60089;BME280;45961;53.574;55.878;2023-02-13T01:54:43;100663.16;;;-10.41;75.52
60089;BME280;45961;53.574;55.878;2023-02-13T01:56:22;100673.31;;;-10.48;75.44
60089;BME280;45961;53.574;55.878;2023-02-13T01:57:27;100675.50;;;-10.51;75.35
60089;BME280;45961;53.574;55.878;2023-02-13T01:58:32;100631.53;;;-10.82;75.22
60089;BME280;45961;53.574;55.878;2023-02-13T01:59:47;100677.25;;;-10.50;75.32
60089;BME280;45961;53.574;55.878;2023-02-13T02:00:49;100674.16;;;-10.56;75.47
60089;BME280;45961;53.574;55.878;2023-02-13T02:01:50;100684.00;;;-10.58;75.51
60089;BME280;45961;53.574;55.878;2023-02-13T02:02:54;100675.03;;;-10.56;75.71
60089;BME280;45961;53.574;55.878;2023-02-13T02:04:14;100677.56;;;-10.47;75.84
60089;BME280;45961;53.574;55.878;2023-02-13T02:05:19;100677.56;;;-10.38;75.59
60089;BME280;45961;53.574;55.878;2023-02-13T02:06:27;100670.81;;;-10.39;75.78
60089;BME280;45961;53.574;55.878;2023-02-13T02:07:32;100680.06;;;-10.38;75.68
60089;BME280;45961;53.574;55.878;2023-02-13T02:08:37;100685.25;;;-10.37;75.74
60089;BME280;45961;53.574;55.878;2023-02-13T02:09:40;100675.84;;;-10.31;75.73
60089;BME280;45961;53.574;55.878;2023-02-13T02:10:42;100672.75;;;-10.37;75.58
60089;BME280;45961;53.574;55.878;2023-02-13T02:11:58;100669.63;;;-10.17;75.54
60089;BME280;45961;53.574;55.878;2023-02-13T02:13:07;100671.13;;;-10.28;75.40
60089;BME280;45961;53.574;55.878;2023-02-13T02:14:12;100668.13;;;-10.50;75.74
60089;BME280;45961;53.574;55.878;2023-02-13T02:15:36;100675.94;;;-10.38;75.79
60089;BME280;45961;53.574;55.878;2023-02-13T02:16:37;100675.25;;;-10.37;75.88
60089;BME280;45961;53.574;55.878;2023-02-13T02:17:38;100673.63;;;-10.36;76.04
60089;BME280;45961;53.574;55.878;2023-02-13T02:18:39;100670.97;;;-10.29;76.04
60089;BME280;45961;53.574;55.878;2023-02-13T02:25:32;100668.91;;;-10.33;76.57
60089;BME280;45961;53.574;55.878;2023-02-13T02:44:38;100646.78;;;-10.55;78.12
60089;BME280;45961;53.574;55.878;2023-02-13T02:49:20;100650.78;;;-10.48;78.08
60089;BME280;45961;53.574;55.878;2023-02-13T02:50:49;100642.53;;;-10.38;78.02
60089;BME280;45961;53.574;55.878;2023-02-13T02:52:05;100660.38;;;-10.35;77.90
60089;BME280;45961;53.574;55.878;2023-02-13T02:56:32;100661.66;;;-10.48;78.11
60089;BME280;45961;53.574;55.878;2023-02-13T02:57:41;100666.34;;;-10.51;78.14
60089;BME280;45961;53.574;55.878;2023-02-13T02:59:15;100658.44;;;-10.47;78.25
60089;BME280;45961;53.574;55.878;2023-02-13T03:00:40;100662.09;;;-10.52;78.38
60089;BME280;45961;53.574;55.878;2023-02-13T03:02:01;100658.28;;;-10.48;78.14
60089;BME280;45961;53.574;55.878;2023-02-13T03:03:24;100660.16;;;-10.54;78.32
60089;BME280;45961;53.574;55.878;2023-02-13T03:04:50;100643.06;;;-10.76;77.97
60089;BME280;45961;53.574;55.878;2023-02-13T03:07:42;100665.94;;;-10.38;77.79
60089;BME280;45961;53.574;55.878;2023-02-13T03:08:50;100658.59;;;-10.36;77.86
60089;BME280;45961;53.574;55.878;2023-02-13T03:10:21;100642.22;;;-10.50;77.46
60089;BME280;45961;53.574;55.878;2023-02-13T03:11:44;100645.06;;;-10.38;77.41
60089;BME280;45961;53.574;55.878;2023-02-13T03:13:10;100653.59;;;-10.36;77.22
60089;BME280;45961;53.574;55.878;2023-02-13T03:14:24;100644.59;;;-10.43;77.26
60089;BME280;45961;53.574;55.878;2023-02-13T03:15:27;100670.25;;;-10.37;77.29
60089;BME280;45961;53.574;55.878;2023-02-13T03:16:29;100655.50;;;-10.42;77.15
60089;BME280;45961;53.574;55.878;2023-02-13T03:17:49;100658.72;;;-10.43;77.23
60089;BME280;45961;53.574;55.878;2023-02-13T03:21:47;100678.00;;;-10.42;77.40
60089;BME280;45961;53.574;55.878;2023-02-13T03:25:32;100657.22;;;-10.59;77.21
60089;BME280;45961;53.574;55.878;2023-02-13T03:32:16;100680.94;;;-10.47;77.25
60089;BME280;45961;53.574;55.878;2023-02-13T03:37:57;100679.97;;;-10.31;77.39
60089;BME280;45961;53.574;55.878;2023-02-13T03:41:06;100675.09;;;-10.30;77.17
60089;BME280;45961;53.574;55.878;2023-02-13T03:42:36;100669.19;;;-10.22;77.11
60089;BME280;45961;53.574;55.878;2023-02-13T03:44:53;100660.22;;;-10.20;77.09
60089;BME280;45961;53.574;55.878;2023-02-13T03:46:16;100660.03;;;-10.21;77.03
60089;BME280;45961;53.574;55.878;2023-02-13T03:47:17;100653.16;;;-10.24;77.10
60089;BME280;45961;53.574;55.878;2023-02-13T03:48:28;100657.84;;;-10.18;77.03
60089;BME280;45961;53.574;55.878;2023-02-13T03:49:49;100658.59;;;-10.02;76.92
60089;BME280;45961;53.574;55.878;2023-02-13T03:51:07;100647.88;;;-10.01;76.61
60089;BME280;45961;53.574;55.878;2023-02-13T03:52:18;100654.94;;;-9.97;76.67
60089;BME280;45961;53.574;55.878;2023-02-13T03:53:23;100669.66;;;-10.08;76.49
60089;BME280;45961;53.574;55.878;2023-02-13T03:54:29;100659.94;;;-9.97;76.65
60089;BME280;45961;53.574;55.878;2023-02-13T03:55:50;100663.91;;;-9.99;76.57
60089;BME280;45961;53.574;55.878;2023-02-13T03:57:13;100669.97;;;-9.97;76.57
60089;BME280;45961;53.574;55.878;2023-02-13T03:58:39;100665.97;;;-10.12;76.49
60089;BME280;45961;53.574;55.878;2023-02-13T04:00:01;100661.09;;;-10.10;76.60
60089;BME280;45961;53.574;55.878;2023-02-13T04:01:16;100670.97;;;-10.03;76.56
60089;BME280;45961;53.574;55.878;2023-02-13T04:02:21;100659.47;;;-10.10;76.74
60089;BME280;45961;53.574;55.878;2023-02-13T04:03:29;100651.38;;;-10.07;76.75
60089;BME280;45961;53.574;55.878;2023-02-13T04:04:42;100663.47;;;-9.95;76.68
60089;BME280;45961;53.574;55.878;2023-02-13T04:05:49;100657.00;;;-9.92;76.67
60089;BME280;45961;53.574;55.878;2023-02-13T04:06:56;100668.47;;;-9.95;76.49
60089;BME280;45961;53.574;55.878;2023-02-13T04:07:57;100652.84;;;-10.18;76.69
60089;BME280;45961;53.574;55.878;2023-02-13T04:08:58;100672.59;;;-10.04;76.54
60089;BME280;45961;53.574;55.878;2023-02-13T04:10:03;100673.34;;;-9.96;76.73
60089;BME280;45961;53.574;55.878;2023-02-13T04:11:09;100647.69;;;-9.94;76.83
60089;BME280;45961;53.574;55.878;2023-02-13T04:13:33;100679.97;;;-9.97;76.60
60089;BME280;45961;53.574;55.878;2023-02-13T04:14:49;100662.44;;;-9.88;76.62
60089;BME280;45961;53.574;55.878;2023-02-13T04:15:56;100655.66;;;-9.98;76.51
60089;BME280;45961;53.574;55.878;2023-02-13T04:17:14;100649.94;;;-9.97;76.65
60089;BME280;45961;53.574;55.878;2023-02-13T04:18:24;100649.31;;;-9.94;76.65
60089;BME280;45961;53.574;55.878;2023-02-13T04:19:27;100651.38;;;-9.90;76.68
60089;BME280;45961;53.574;55.878;2023-02-13T04:20:30;100627.81;;;-10.09;76.76
60089;BME280;45961;53.574;55.878;2023-02-13T04:21:32;100661.28;;;-9.91;76.75
60089;BME280;45961;53.574;55.878;2023-02-13T04:22:34;100656.97;;;-10.01;76.82
60089;BME280;45961;53.574;55.878;2023-02-13T04:23:41;100666.09;;;-10.02;76.94
60089;BME280;45961;53.574;55.878;2023-02-13T04:24:42;100659.03;;;-10.06;77.10
60089;BME280;45961;53.574;55.878;2023-02-13T04:25:47;100649.03;;;-10.06;77.05
60089;BME280;45961;53.574;55.878;2023-02-13T04:26:48;100648.13;;;-9.98;77.20
60089;BME280;45961;53.574;55.878;2023-02-13T04:27:49;100655.66;;;-9.98;77.25
60089;BME280;45961;53.574;55.878;2023-02-13T04:28:50;100658.47;;;-9.95;77.30
60089;BME280;45961;53.574;55.878;2023-02-13T04:29:51;100648.75;;;-9.91;77.49
60089;BME280;45961;53.574;55.878;2023-02-13T04:30:52;100642.41;;;-9.79;77.45
60089;BME280;45961;53.574;55.878;2023-02-13T04:31:53;100646.38;;;-9.81;77.33
60089;BME280;45961;53.574;55.878;2023-02-13T04:32:57;100652.25;;;-9.81;77.41
60089;BME280;45961;53.574;55.878;2023-02-13T04:33:58;100654.75;;;-9.81;77.20
60089;BME280;45961;53.574;55.878;2023-02-13T04:34:59;100654.50;;;-9.84;77.43
60089;BME280;45961;53.574;55.878;2023-02-13T04:36:00;100651.69;;;-9.78;77.43
60089;BME280;45961;53.574;55.878;2023-02-13T04:37:02;100642.84;;;-9.75;77.42
60089;BME280;45961;53.574;55.878;2023-02-13T04:38:03;100657.56;;;-9.69;77.51
60089;BME280;45961;53.574;55.878;2023-02-13T04:39:04;100643.72;;;-9.74;77.74
60089;BME280;45961;53.574;55.878;2023-02-13T04:40:06;100651.53;;;-9.62;77.56
60089;BME280;45961;53.574;55.878;2023-02-13T04:41:07;100649.47;;;-9.75;77.63
60089;BME280;45961;53.574;55.878;2023-02-13T04:42:08;100651.97;;;-9.66;78.00
60089;BME280;45961;53.574;55.878;2023-02-13T04:43:09;100648.88;;;-9.81;77.85
60089;BME280;45961;53.574;55.878;2023-02-13T04:44:10;100640.50;;;-9.99;78.15
60089;BME280;45961;53.574;55.878;2023-02-13T04:45:11;100650.50;;;-9.73;78.57
60089;BME280;45961;53.574;55.878;2023-02-13T04:46:12;100663.03;;;-9.64;78.56
60089;BME280;45961;53.574;55.878;2023-02-13T04:47:13;100663.16;;;-9.54;78.61
60089;BME280;45961;53.574;55.878;2023-02-13T04:48:15;100667.59;;;-9.60;78.61
60089;BME280;45961;53.574;55.878;2023-02-13T04:49:15;100667.88;;;-9.57;78.78
60089;BME280;45961;53.574;55.878;2023-02-13T04:50:16;100672.75;;;-9.67;78.86
60089;BME280;45961;53.574;55.878;2023-02-13T04:51:17;100676.00;;;-9.60;79.12
60089;BME280;45961;53.574;55.878;2023-02-13T04:52:18;100670.22;;;-9.50;79.10
60089;BME280;45961;53.574;55.878;2023-02-13T04:53:19;100675.38;;;-9.49;78.96
60089;BME280;45961;53.574;55.878;2023-02-13T04:54:20;100662.84;;;-9.57;79.17
60089;BME280;45961;53.574;55.878;2023-02-13T04:55:23;100698.38;;;-9.61;79.36
60089;BME280;45961;53.574;55.878;2023-02-13T04:56:24;100669.78;;;-9.55;79.54
60089;BME280;45961;53.574;55.878;2023-02-13T04:57:25;100658.59;;;-9.58;79.46
60089;BME280;45961;53.574;55.878;2023-02-13T04:58:26;100664.47;;;-9.40;79.54
60089;BME280;45961;53.574;55.878;2023-02-13T04:59:27;100652.22;;;-9.37;79.57
60089;BME280;45961;53.574;55.878;2023-02-13T05:00:28;100660.78;;;-9.35;79.44
60089;BME280;45961;53.574;55.878;2023-02-13T05:01:29;100668.13;;;-9.37;79.52
60089;BME280;45961;53.574;55.878;2023-02-13T05:02:30;100651.06;;;-9.32;79.43
60089;BME280;45961;53.574;55.878;2023-02-13T05:03:31;100658.09;;;-9.20;79.28
60089;BME280;45961;53.574;55.878;2023-02-13T05:04:32;100663.19;;;-9.09;79.21
60089;BME280;45961;53.574;55.878;2023-02-13T05:05:34;100658.66;;;-9.22;79.22
60089;BME280;45961;53.574;55.878;2023-02-13T05:06:34;100656.56;;;-9.09;79.17
60089;BME280;45961;53.574;55.878;2023-02-13T05:07:36;100660.41;;;-9.04;78.75
60089;BME280;45961;53.574;55.878;2023-02-13T05:08:37;100664.97;;;-9.00;78.85
60089;BME280;45961;53.574;55.878;2023-02-13T05:09:38;100644.47;;;-9.04;78.89
60089;BME280;45961;53.574;55.878;2023-02-13T05:10:39;100635.31;;;-9.04;78.55
60089;BME280;45961;53.574;55.878;2023-02-13T05:11:40;100648.53;;;-8.87;78.60
60089;BME280;45961;53.574;55.878;2023-02-13T05:12:41;100663.91;;;-9.02;78.62
60089;BME280;45961;53.574;55.878;2023-02-13T05:13:42;100659.53;;;-9.13;78.62
60089;BME280;45961;53.574;55.878;2023-02-13T05:14:43;100638.50;;;-9.24;78.84
60089;BME280;45961;53.574;55.878;2023-02-13T05:15:46;100662.66;;;-9.15;78.93
60089;BME280;45961;53.574;55.878;2023-02-13T05:16:47;100647.44;;;-9.17;79.02
60089;BME280;45961;53.574;55.878;2023-02-13T05:17:50;100648.31;;;-9.16;79.19
60089;BME280;45961;53.574;55.878;2023-02-13T05:18:51;100647.56;;;-9.07;79.40
60089;BME280;45961;53.574;55.878;2023-02-13T05:19:57;100648.16;;;-9.09;79.40
60089;BME280;45961;53.574;55.878;2023-02-13T05:21:00;100647.44;;;-9.17;79.39
60089;BME280;45961;53.574;55.878;2023-02-13T05:22:20;100641.97;;;-9.13;79.56
60089;BME280;45961;53.574;55.878;2023-02-13T05:23:39;100651.84;;;-9.06;79.46
60089;BME280;45961;53.574;55.878;2023-02-13T05:24:40;100657.94;;;-9.21;79.31
60089;BME280;45961;53.574;55.878;2023-02-13T05:25:41;100662.34;;;-9.18;79.44
60089;BME280;45961;53.574;55.878;2023-02-13T05:26:42;100640.66;;;-9.18;79.39
60089;BME280;45961;53.574;55.878;2023-02-13T05:27:43;100657.69;;;-8.97;79.40
60089;BME280;45961;53.574;55.878;2023-02-13T05:28:44;100663.44;;;-8.89;78.95
60089;BME280;45961;53.574;55.878;2023-02-13T05:30:04;100658.63;;;-8.96;78.65
60089;BME280;45961;53.574;55.878;2023-02-13T05:31:08;100645.00;;;-8.89;78.45
60089;BME280;45961;53.574;55.878;2023-02-13T05:32:09;100654.44;;;-8.87;78.46
60089;BME280;45961;53.574;55.878;2023-02-13T05:33:10;100648.72;;;-8.95;78.37
60089;BME280;45961;53.574;55.878;2023-02-13T05:34:11;100644.34;;;-8.78;78.45
60089;BME280;45961;53.574;55.878;2023-02-13T05:35:12;100646.75;;;-8.88;78.08
60089;BME280;45961;53.574;55.878;2023-02-13T05:36:13;100619.75;;;-9.18;78.23
60089;BME280;45961;53.574;55.878;2023-02-13T05:37:14;100634.50;;;-8.85;78.15
60089;BME280;45961;53.574;55.878;2023-02-13T05:38:15;100635.81;;;-8.80;78.09
60089;BME280;45961;53.574;55.878;2023-02-13T05:39:16;100631.94;;;-8.77;77.89
60089;BME280;45961;53.574;55.878;2023-02-13T05:40:17;100623.72;;;-8.84;77.71
60089;BME280;45961;53.574;55.878;2023-02-13T05:41:18;100629.66;;;-8.92;77.63
60089;BME280;45961;53.574;55.878;2023-02-13T05:42:20;100607.25;;;-8.91;77.76
60089;BME280;45961;53.574;55.878;2023-02-13T05:43:21;100632.66;;;-8.69;77.68
60089;BME280;45961;53.574;55.878;2023-02-13T05:44:22;100625.13;;;-8.69;77.62
60089;BME280;45961;53.574;55.878;2023-02-13T05:45:23;100617.69;;;-8.59;77.42
60089;BME280;45961;53.574;55.878;2023-02-13T05:46:24;100628.94;;;-8.64;77.34
60089;BME280;45961;53.574;55.878;2023-02-13T05:47:25;100625.69;;;-8.63;77.30
60089;BME280;45961;53.574;55.878;2023-02-13T05:48:26;100624.81;;;-8.63;77.19
60089;BME280;45961;53.574;55.878;2023-02-13T05:49:27;100626.63;;;-8.43;77.26
60089;BME280;45961;53.574;55.878;2023-02-13T05:50:28;100635.91;;;-8.42;77.23
60089;BME280;45961;53.574;55.878;2023-02-13T05:51:29;100632.44;;;-8.15;77.07
60089;BME280;45961;53.574;55.878;2023-02-13T05:52:30;100637.09;;;-8.29;76.68
60089;BME280;45961;53.574;55.878;2023-02-13T05:53:31;100632.81;;;-8.40;76.59
60089;BME280;45961;53.574;55.878;2023-02-13T05:54:34;100627.81;;;-8.49;76.77
60089;BME280;45961;53.574;55.878;2023-02-13T05:55:38;100631.72;;;-8.61;76.73
60089;BME280;45961;53.574;55.878;2023-02-13T05:56:39;100626.81;;;-8.51;76.99
60089;BME280;45961;53.574;55.878;2023-02-13T05:57:40;100620.97;;;-8.41;76.95
60089;BME280;45961;53.574;55.878;2023-02-13T05:58:41;100636.63;;;-8.25;76.95
60089;BME280;45961;53.574;55.878;2023-02-13T05:59:41;100633.19;;;-8.35;76.62
60089;BME280;45961;53.574;55.878;2023-02-13T06:00:43;100628.22;;;-8.25;76.71
60089;BME280;45961;53.574;55.878;2023-02-13T06:01:43;100634.00;;;-8.26;76.46
60089;BME280;45961;53.574;55.878;2023-02-13T06:02:44;100635.56;;;-8.18;76.53
60089;BME280;45961;53.574;55.878;2023-02-13T06:03:45;100641.06;;;-8.03;76.50
60089;BME280;45961;53.574;55.878;2023-02-13T06:04:46;100628.34;;;-8.05;76.25
60089;BME280;45961;53.574;55.878;2023-02-13T06:05:47;100636.47;;;-7.99;76.33
60089;BME280;45961;53.574;55.878;2023-02-13T06:06:48;100635.38;;;-8.11;76.15
60089;BME280;45961;53.574;55.878;2023-02-13T06:07:49;100623.75;;;-8.19;76.16
60089;BME280;45961;53.574;55.878;2023-02-13T06:08:51;100636.78;;;-8.23;76.09
60089;BME280;45961;53.574;55.878;2023-02-13T06:09:52;100629.59;;;-8.10;76.36
60089;BME280;45961;53.574;55.878;2023-02-13T06:10:53;100614.00;;;-8.16;76.40
60089;BME280;45961;53.574;55.878;2023-02-13T06:11:54;100626.97;;;-8.11;76.46
60089;BME280;45961;53.574;55.878;2023-02-13T06:12:55;100621.38;;;-8.17;76.53
60089;BME280;45961;53.574;55.878;2023-02-13T06:13:56;100623.13;;;-8.16;76.33
60089;BME280;45961;53.574;55.878;2023-02-13T06:14:57;100626.41;;;-7.99;76.54
60089;BME280;45961;53.574;55.878;2023-02-13T06:15:58;100630.97;;;-7.95;76.41
60089;BME280;45961;53.574;55.878;2023-02-13T06:17:00;100621.03;;;-7.93;76.21
60089;BME280;45961;53.574;55.878;2023-02-13T06:18:01;100625.78;;;-7.77;76.40
60089;BME280;45961;53.574;55.878;2023-02-13T06:19:02;100617.47;;;-7.76;76.02
60089;BME280;45961;53.574;55.878;2023-02-13T06:20:04;100617.16;;;-7.89;75.96
60089;BME280;45961;53.574;55.878;2023-02-13T06:21:07;100617.38;;;-7.97;76.01
60089;BME280;45961;53.574;55.878;2023-02-13T06:22:08;100618.13;;;-7.79;76.11
60089;BME280;45961;53.574;55.878;2023-02-13T06:23:09;100623.41;;;-7.76;76.17
60089;BME280;45961;53.574;55.878;2023-02-13T06:24:10;100617.34;;;-7.59;76.04
60089;BME280;45961;53.574;55.878;2023-02-13T06:25:11;100624.81;;;-7.69;75.83